sensor_id;sensor_type;location;lat;lon;timestamp;temperature;humidity
57829;DHT22;43657;52.698;6.314;2023-07-31T00:01:15;15.10;99.90
57829;DHT22;43657;52.698;6.314;2023-07-31T00:03:41;15.10;99.90
57829;DHT22;43657;52.698;6.314;2023-07-31T00:06:06;15.10;99.90
57829;DHT22;43657;52.698;6.314;2023-07-31T00:08:32;15.00;99.90
57829;DHT22;43657;52.698;6.314;2023-07-31T00:10:57;15.10;99.90
57829;DHT22;43657;52.698;6.314;2023-07-31T00:13:23;15.00;99.90
57829;DHT22;43657;52.698;6.314;2023-07-31T00:15:48;15.00;99.90
57829;DHT22;43657;52.698;6.314;2023-07-31T00:18:14;15.00;99.90
57829;DHT22;43657;52.698;6.314;2023-07-31T00:20:40;14.90;99.90
57829;DHT22;43657;52.698;6.314;2023-07-31T00:23:06;15.00;99.90
57829;DHT22;43657;52.698;6.314;2023-07-31T00:25:31;14.90;99.90
57829;DHT22;43657;52.698;6.314;2023-07-31T00:27:57;14.90;99.90
57829;DHT22;43657;52.698;6.314;2023-07-31T00:30:22;15.00;99.90
57829;DHT22;43657;52.698;6.314;2023-07-31T00:32:50;14.90;99.90
57829;DHT22;43657;52.698;6.314;2023-07-31T00:35:16;14.90;99.90
57829;DHT22;43657;52.698;6.314;2023-07-31T00:37:41;14.80;99.90
57829;DHT22;43657;52.698;6.314;2023-07-31T00:40:08;14.80;99.90
57829;DHT22;43657;52.698;6.314;2023-07-31T00:42:33;14.80;99.90
57829;DHT22;43657;52.698;6.314;2023-07-31T00:44:59;14.80;99.90
57829;DHT22;43657;52.698;6.314;2023-07-31T00:47:25;14.80;99.90
57829;DHT22;43657;52.698;6.314;2023-07-31T00:49:51;14.80;99.90
57829;DHT22;43657;52.698;6.314;2023-07-31T00:52:18;14.80;99.90
57829;DHT22;43657;52.698;6.314;2023-07-31T00:54:44;14.80;99.90
57829;DHT22;43657;52.698;6.314;2023-07-31T00:57:10;14.80;99.90
57829;DHT22;43657;52.698;6.314;2023-07-31T00:59:35;14.80;99.90
57829;DHT22;43657;52.698;6.314;2023-07-31T01:02:01;14.70;99.90
57829;DHT22;43657;52.698;6.314;2023-07-31T01:04:27;14.70;99.90
57829;DHT22;43657;52.698;6.314;2023-07-31T01:07:14;14.70;99.90
57829;DHT22;43657;52.698;6.314;2023-07-31T01:09:50;14.70;99.90
57829;DHT22;43657;52.698;6.314;2023-07-31T01:12:17;14.70;99.90
57829;DHT22;43657;52.698;6.314;2023-07-31T01:15:12;14.70;99.90
57829;DHT22;43657;52.698;6.314;2023-07-31T01:17:41;14.70;99.90
57829;DHT22;43657;52.698;6.314;2023-07-31T01:20:24;14.80;99.90
57829;DHT22;43657;52.698;6.314;2023-07-31T01:31:24;14.70;99.90
57829;DHT22;43657;52.698;6.314;2023-07-31T01:33:53;14.70;99.90
57829;DHT22;43657;52.698;6.314;2023-07-31T01:36:19;14.70;99.90
57829;DHT22;43657;52.698;6.314;2023-07-31T01:38:45;14.80;99.90
57829;DHT22;43657;52.698;6.314;2023-07-31T01:41:11;14.80;99.90
57829;DHT22;43657;52.698;6.314;2023-07-31T01:43:36;14.80;99.90
57829;DHT22;43657;52.698;6.314;2023-07-31T01:46:02;14.80;99.90
57829;DHT22;43657;52.698;6.314;2023-07-31T01:48:27;14.80;99.90
57829;DHT22;43657;52.698;6.314;2023-07-31T01:50:53;14.80;99.90
57829;DHT22;43657;52.698;6.314;2023-07-31T01:53:19;14.90;99.90
57829;DHT22;43657;52.698;6.314;2023-07-31T01:55:44;14.90;99.90
57829;DHT22;43657;52.698;6.314;2023-07-31T01:58:10;14.90;99.90
57829;DHT22;43657;52.698;6.314;2023-07-31T02:00:35;14.90;99.90
57829;DHT22;43657;52.698;6.314;2023-07-31T02:03:01;14.90;99.90
57829;DHT22;43657;52.698;6.314;2023-07-31T02:05:27;14.90;99.90
57829;DHT22;43657;52.698;6.314;2023-07-31T02:07:52;15.00;99.90
57829;DHT22;43657;52.698;6.314;2023-07-31T02:10:18;15.00;99.90
57829;DHT22;43657;52.698;6.314;2023-07-31T02:12:43;15.00;99.90
57829;DHT22;43657;52.698;6.314;2023-07-31T02:15:09;15.00;99.90
57829;DHT22;43657;52.698;6.314;2023-07-31T02:17:35;15.10;99.90
57829;DHT22;43657;52.698;6.314;2023-07-31T02:20:00;15.10;99.90
57829;DHT22;43657;52.698;6.314;2023-07-31T02:22:26;15.10;99.90
57829;DHT22;43657;52.698;6.314;2023-07-31T02:24:52;15.10;99.90
57829;DHT22;43657;52.698;6.314;2023-07-31T02:27:17;15.10;99.90
57829;DHT22;43657;52.698;6.314;2023-07-31T02:29:43;15.20;99.90
57829;DHT22;43657;52.698;6.314;2023-07-31T02:32:08;15.20;99.90
57829;DHT22;43657;52.698;6.314;2023-07-31T02:34:34;15.20;99.90
57829;DHT22;43657;52.698;6.314;2023-07-31T02:37:00;15.20;99.90
57829;DHT22;43657;52.698;6.314;2023-07-31T02:39:25;15.30;99.90
57829;DHT22;43657;52.698;6.314;2023-07-31T02:41:51;15.20;99.90
57829;DHT22;43657;52.698;6.314;2023-07-31T02:44:16;15.20;99.90
57829;DHT22;43657;52.698;6.314;2023-07-31T02:46:42;15.30;99.90
57829;DHT22;43657;52.698;6.314;2023-07-31T02:49:07;15.30;99.90
57829;DHT22;43657;52.698;6.314;2023-07-31T02:51:33;15.30;99.90
57829;DHT22;43657;52.698;6.314;2023-07-31T02:53:58;15.30;99.90
57829;DHT22;43657;52.698;6.314;2023-07-31T02:56:24;15.30;99.90
57829;DHT22;43657;52.698;6.314;2023-07-31T02:58:50;15.30;99.90
57829;DHT22;43657;52.698;6.314;2023-07-31T03:01:15;15.40;99.90
57829;DHT22;43657;52.698;6.314;2023-07-31T03:03:41;15.40;99.90
57829;DHT22;43657;52.698;6.314;2023-07-31T03:06:07;15.40;99.90
57829;DHT22;43657;52.698;6.314;2023-07-31T03:08:33;15.40;99.90
57829;DHT22;43657;52.698;6.314;2023-07-31T03:10:58;15.40;99.90
57829;DHT22;43657;52.698;6.314;2023-07-31T03:13:24;15.40;99.90
57829;DHT22;43657;52.698;6.314;2023-07-31T03:15:50;15.40;99.90
57829;DHT22;43657;52.698;6.314;2023-07-31T03:18:16;15.40;99.90
57829;DHT22;43657;52.698;6.314;2023-07-31T03:20:44;15.50;99.90
57829;DHT22;43657;52.698;6.314;2023-07-31T03:23:10;15.50;99.90
57829;DHT22;43657;52.698;6.314;2023-07-31T03:25:36;15.50;99.90
57829;DHT22;43657;52.698;6.314;2023-07-31T03:28:02;15.60;99.90
57829;DHT22;43657;52.698;6.314;2023-07-31T03:30:28;15.60;99.90
57829;DHT22;43657;52.698;6.314;2023-07-31T03:32:53;15.60;99.90
57829;DHT22;43657;52.698;6.314;2023-07-31T03:35:19;15.60;99.90
57829;DHT22;43657;52.698;6.314;2023-07-31T03:37:44;15.60;99.90
57829;DHT22;43657;52.698;6.314;2023-07-31T03:40:10;15.70;99.90
57829;DHT22;43657;52.698;6.314;2023-07-31T03:42:36;15.70;99.90
57829;DHT22;43657;52.698;6.314;2023-07-31T03:45:02;15.70;99.90
57829;DHT22;43657;52.698;6.314;2023-07-31T03:47:28;15.70;99.90
57829;DHT22;43657;52.698;6.314;2023-07-31T03:49:53;15.70;99.90
57829;DHT22;43657;52.698;6.314;2023-07-31T03:52:19;15.70;99.90
57829;DHT22;43657;52.698;6.314;2023-07-31T03:54:44;15.70;99.90
57829;DHT22;43657;52.698;6.314;2023-07-31T03:57:10;15.70;99.90
57829;DHT22;43657;52.698;6.314;2023-07-31T03:59:36;15.70;99.90
57829;DHT22;43657;52.698;6.314;2023-07-31T04:02:04;15.60;99.90
57829;DHT22;43657;52.698;6.314;2023-07-31T04:04:30;15.70;99.90
57829;DHT22;43657;52.698;6.314;2023-07-31T04:06:55;15.70;99.90
57829;DHT22;43657;52.698;6.314;2023-07-31T04:09:21;15.70;99.90
57829;DHT22;43657;52.698;6.314;2023-07-31T04:11:47;15.80;99.90
57829;DHT22;43657;52.698;6.314;2023-07-31T04:14:12;15.70;99.90
57829;DHT22;43657;52.698;6.314;2023-07-31T04:16:38;15.70;99.90
57829;DHT22;43657;52.698;6.314;2023-07-31T04:19:04;15.80;99.90
57829;DHT22;43657;52.698;6.314;2023-07-31T04:21:29;15.80;99.90
57829;DHT22;43657;52.698;6.314;2023-07-31T04:23:55;15.80;99.90
57829;DHT22;43657;52.698;6.314;2023-07-31T04:26:21;15.80;99.90
57829;DHT22;43657;52.698;6.314;2023-07-31T04:28:47;15.70;99.90
57829;DHT22;43657;52.698;6.314;2023-07-31T04:31:13;15.90;99.90
57829;DHT22;43657;52.698;6.314;2023-07-31T04:33:38;15.90;99.90
57829;DHT22;43657;52.698;6.314;2023-07-31T04:36:05;15.90;99.90
57829;DHT22;43657;52.698;6.314;2023-07-31T04:38:30;15.90;99.90
57829;DHT22;43657;52.698;6.314;2023-07-31T04:40:56;15.90;99.90
57829;DHT22;43657;52.698;6.314;2023-07-31T04:43:22;15.90;99.90
57829;DHT22;43657;52.698;6.314;2023-07-31T04:45:48;15.90;99.90
57829;DHT22;43657;52.698;6.314;2023-07-31T04:48:14;15.90;99.90
57829;DHT22;43657;52.698;6.314;2023-07-31T04:50:40;15.90;99.90
57829;DHT22;43657;52.698;6.314;2023-07-31T04:53:05;15.90;99.90
57829;DHT22;43657;52.698;6.314;2023-07-31T04:55:31;16.00;99.90
57829;DHT22;43657;52.698;6.314;2023-07-31T04:57:58;16.00;99.90
57829;DHT22;43657;52.698;6.314;2023-07-31T05:00:24;15.90;99.90
57829;DHT22;43657;52.698;6.314;2023-07-31T05:02:50;16.00;99.90
57829;DHT22;43657;52.698;6.314;2023-07-31T05:05:15;16.00;99.90
57829;DHT22;43657;52.698;6.314;2023-07-31T05:07:41;15.90;99.90
57829;DHT22;43657;52.698;6.314;2023-07-31T05:10:07;16.00;99.90
57829;DHT22;43657;52.698;6.314;2023-07-31T05:12:32;16.00;99.90
57829;DHT22;43657;52.698;6.314;2023-07-31T05:14:58;16.00;99.90
57829;DHT22;43657;52.698;6.314;2023-07-31T05:17:24;16.00;99.90
57829;DHT22;43657;52.698;6.314;2023-07-31T05:19:49;16.00;99.90
57829;DHT22;43657;52.698;6.314;2023-07-31T05:22:15;16.10;99.90
57829;DHT22;43657;52.698;6.314;2023-07-31T05:24:40;16.10;99.90
57829;DHT22;43657;52.698;6.314;2023-07-31T05:27:06;16.10;99.90
57829;DHT22;43657;52.698;6.314;2023-07-31T05:29:32;16.10;99.90
57829;DHT22;43657;52.698;6.314;2023-07-31T05:31:57;16.20;99.90
57829;DHT22;43657;52.698;6.314;2023-07-31T05:34:23;16.10;99.90
57829;DHT22;43657;52.698;6.314;2023-07-31T05:36:48;16.20;99.90
57829;DHT22;43657;52.698;6.314;2023-07-31T05:39:14;16.20;99.90
57829;DHT22;43657;52.698;6.314;2023-07-31T05:41:39;16.10;99.90
57829;DHT22;43657;52.698;6.314;2023-07-31T05:44:05;16.10;99.90
57829;DHT22;43657;52.698;6.314;2023-07-31T05:46:31;16.10;99.90
57829;DHT22;43657;52.698;6.314;2023-07-31T05:48:56;16.10;99.90
57829;DHT22;43657;52.698;6.314;2023-07-31T05:51:22;16.10;99.90
57829;DHT22;43657;52.698;6.314;2023-07-31T05:53:48;16.10;99.90
57829;DHT22;43657;52.698;6.314;2023-07-31T05:56:13;16.10;99.90
57829;DHT22;43657;52.698;6.314;2023-07-31T05:58:39;16.20;99.90
57829;DHT22;43657;52.698;6.314;2023-07-31T06:01:04;16.20;99.90
57829;DHT22;43657;52.698;6.314;2023-07-31T06:03:30;16.30;99.90
57829;DHT22;43657;52.698;6.314;2023-07-31T06:05:56;16.30;99.90
57829;DHT22;43657;52.698;6.314;2023-07-31T06:08:21;16.30;99.90
57829;DHT22;43657;52.698;6.314;2023-07-31T06:10:47;16.30;99.90
57829;DHT22;43657;52.698;6.314;2023-07-31T06:13:13;16.30;99.90
57829;DHT22;43657;52.698;6.314;2023-07-31T06:15:38;16.30;99.90
57829;DHT22;43657;52.698;6.314;2023-07-31T06:18:04;16.20;99.90
57829;DHT22;43657;52.698;6.314;2023-07-31T06:20:33;16.20;99.90
57829;DHT22;43657;52.698;6.314;2023-07-31T06:22:59;16.20;99.90
57829;DHT22;43657;52.698;6.314;2023-07-31T06:25:25;16.10;99.90
57829;DHT22;43657;52.698;6.314;2023-07-31T06:27:50;16.20;99.90
57829;DHT22;43657;52.698;6.314;2023-07-31T06:30:16;16.10;99.90
57829;DHT22;43657;52.698;6.314;2023-07-31T06:32:42;16.00;99.90
57829;DHT22;43657;52.698;6.314;2023-07-31T06:35:08;16.00;99.90
57829;DHT22;43657;52.698;6.314;2023-07-31T06:37:34;16.10;99.90
57829;DHT22;43657;52.698;6.314;2023-07-31T06:39:59;16.10;99.90
57829;DHT22;43657;52.698;6.314;2023-07-31T06:42:25;16.10;99.90
57829;DHT22;43657;52.698;6.314;2023-07-31T06:44:51;16.10;99.90
57829;DHT22;43657;52.698;6.314;2023-07-31T06:47:16;16.10;99.90
57829;DHT22;43657;52.698;6.314;2023-07-31T06:49:42;16.10;99.90
57829;DHT22;43657;52.698;6.314;2023-07-31T06:52:07;16.10;99.90
57829;DHT22;43657;52.698;6.314;2023-07-31T06:54:33;16.20;99.90
57829;DHT22;43657;52.698;6.314;2023-07-31T06:56:59;16.30;99.90
57829;DHT22;43657;52.698;6.314;2023-07-31T06:59:24;16.30;99.90
57829;DHT22;43657;52.698;6.314;2023-07-31T07:01:50;16.30;99.90
57829;DHT22;43657;52.698;6.314;2023-07-31T07:04:15;16.30;99.90
57829;DHT22;43657;52.698;6.314;2023-07-31T07:06:41;16.30;99.90
57829;DHT22;43657;52.698;6.314;2023-07-31T07:09:07;16.40;99.90
57829;DHT22;43657;52.698;6.314;2023-07-31T07:11:33;16.40;99.90
57829;DHT22;43657;52.698;6.314;2023-07-31T07:13:59;16.50;99.90
57829;DHT22;43657;52.698;6.314;2023-07-31T07:16:26;16.50;99.90
57829;DHT22;43657;52.698;6.314;2023-07-31T07:18:51;16.50;99.90
57829;DHT22;43657;52.698;6.314;2023-07-31T07:21:17;16.40;99.90
57829;DHT22;43657;52.698;6.314;2023-07-31T07:23:43;16.40;99.90
57829;DHT22;43657;52.698;6.314;2023-07-31T07:26:09;16.30;99.90
57829;DHT22;43657;52.698;6.314;2023-07-31T07:28:34;16.30;99.90
57829;DHT22;43657;52.698;6.314;2023-07-31T07:31:02;16.20;99.90
57829;DHT22;43657;52.698;6.314;2023-07-31T07:33:28;16.30;99.90
57829;DHT22;43657;52.698;6.314;2023-07-31T07:35:54;16.30;99.90
57829;DHT22;43657;52.698;6.314;2023-07-31T07:38:19;16.40;99.90
57829;DHT22;43657;52.698;6.314;2023-07-31T07:40:45;16.40;99.90
57829;DHT22;43657;52.698;6.314;2023-07-31T07:43:12;16.40;99.90
57829;DHT22;43657;52.698;6.314;2023-07-31T07:45:37;16.40;99.90
57829;DHT22;43657;52.698;6.314;2023-07-31T07:48:03;16.40;99.90
57829;DHT22;43657;52.698;6.314;2023-07-31T07:50:29;16.50;99.90
57829;DHT22;43657;52.698;6.314;2023-07-31T07:52:55;16.40;99.90
57829;DHT22;43657;52.698;6.314;2023-07-31T07:55:20;16.40;99.90
57829;DHT22;43657;52.698;6.314;2023-07-31T07:57:46;16.50;99.90
57829;DHT22;43657;52.698;6.314;2023-07-31T08:00:13;16.50;99.90
57829;DHT22;43657;52.698;6.314;2023-07-31T08:02:38;16.50;99.90
57829;DHT22;43657;52.698;6.314;2023-07-31T08:05:04;16.60;99.90
57829;DHT22;43657;52.698;6.314;2023-07-31T08:07:30;16.70;99.90
57829;DHT22;43657;52.698;6.314;2023-07-31T08:09:55;16.70;99.90
57829;DHT22;43657;52.698;6.314;2023-07-31T08:12:21;16.80;99.90
57829;DHT22;43657;52.698;6.314;2023-07-31T08:14:46;16.80;99.90
57829;DHT22;43657;52.698;6.314;2023-07-31T08:17:12;16.80;99.90
57829;DHT22;43657;52.698;6.314;2023-07-31T08:19:38;16.90;99.90
57829;DHT22;43657;52.698;6.314;2023-07-31T08:22:03;16.90;99.90
57829;DHT22;43657;52.698;6.314;2023-07-31T08:24:29;16.90;99.90
57829;DHT22;43657;52.698;6.314;2023-07-31T08:26:55;17.00;99.90
57829;DHT22;43657;52.698;6.314;2023-07-31T08:29:21;16.90;99.90
57829;DHT22;43657;52.698;6.314;2023-07-31T08:31:46;17.00;99.90
57829;DHT22;43657;52.698;6.314;2023-07-31T08:34:12;17.00;99.90
57829;DHT22;43657;52.698;6.314;2023-07-31T08:36:37;17.10;99.90
57829;DHT22;43657;52.698;6.314;2023-07-31T08:39:03;17.10;99.90
57829;DHT22;43657;52.698;6.314;2023-07-31T08:41:29;17.20;99.90
57829;DHT22;43657;52.698;6.314;2023-07-31T08:43:55;17.30;99.90
57829;DHT22;43657;52.698;6.314;2023-07-31T08:46:22;17.30;99.90
57829;DHT22;43657;52.698;6.314;2023-07-31T08:48:48;17.30;99.90
57829;DHT22;43657;52.698;6.314;2023-07-31T08:51:16;17.30;99.90
57829;DHT22;43657;52.698;6.314;2023-07-31T08:53:42;17.20;99.90
57829;DHT22;43657;52.698;6.314;2023-07-31T08:56:08;17.30;99.90
57829;DHT22;43657;52.698;6.314;2023-07-31T08:58:35;17.40;99.90
57829;DHT22;43657;52.698;6.314;2023-07-31T09:01:04;17.50;99.90
57829;DHT22;43657;52.698;6.314;2023-07-31T09:03:33;17.60;99.90
57829;DHT22;43657;52.698;6.314;2023-07-31T09:05:59;17.60;99.90
57829;DHT22;43657;52.698;6.314;2023-07-31T09:08:26;17.60;99.90
57829;DHT22;43657;52.698;6.314;2023-07-31T09:10:53;17.60;99.90
57829;DHT22;43657;52.698;6.314;2023-07-31T09:13:20;17.60;99.90
57829;DHT22;43657;52.698;6.314;2023-07-31T09:15:46;17.60;99.90
57829;DHT22;43657;52.698;6.314;2023-07-31T09:18:12;17.60;99.90
57829;DHT22;43657;52.698;6.314;2023-07-31T09:20:39;17.60;99.90
57829;DHT22;43657;52.698;6.314;2023-07-31T09:23:10;17.60;99.90
57829;DHT22;43657;52.698;6.314;2023-07-31T09:25:36;17.60;99.90
57829;DHT22;43657;52.698;6.314;2023-07-31T09:28:07;17.60;99.90
57829;DHT22;43657;52.698;6.314;2023-07-31T09:30:50;17.70;99.90
57829;DHT22;43657;52.698;6.314;2023-07-31T09:33:17;17.80;99.90
57829;DHT22;43657;52.698;6.314;2023-07-31T09:35:43;17.90;99.90
57829;DHT22;43657;52.698;6.314;2023-07-31T09:38:13;18.00;99.90
57829;DHT22;43657;52.698;6.314;2023-07-31T09:40:41;18.10;99.90
57829;DHT22;43657;52.698;6.314;2023-07-31T09:43:10;18.10;99.90
57829;DHT22;43657;52.698;6.314;2023-07-31T09:45:41;18.10;99.90
57829;DHT22;43657;52.698;6.314;2023-07-31T09:48:12;18.10;99.90
57829;DHT22;43657;52.698;6.314;2023-07-31T09:50:41;18.10;99.90
57829;DHT22;43657;52.698;6.314;2023-07-31T09:53:07;18.20;99.90
57829;DHT22;43657;52.698;6.314;2023-07-31T09:55:36;18.30;99.90
57829;DHT22;43657;52.698;6.314;2023-07-31T09:58:06;18.40;99.90
57829;DHT22;43657;52.698;6.314;2023-07-31T10:00:32;18.40;99.90
57829;DHT22;43657;52.698;6.314;2023-07-31T10:02:59;18.40;99.90
57829;DHT22;43657;52.698;6.314;2023-07-31T10:05:34;18.50;99.90
57829;DHT22;43657;52.698;6.314;2023-07-31T10:08:00;18.50;99.90
57829;DHT22;43657;52.698;6.314;2023-07-31T10:10:26;18.50;99.90
57829;DHT22;43657;52.698;6.314;2023-07-31T10:12:53;18.50;99.90
57829;DHT22;43657;52.698;6.314;2023-07-31T10:15:20;18.50;99.90
57829;DHT22;43657;52.698;6.314;2023-07-31T10:17:49;18.70;99.90
57829;DHT22;43657;52.698;6.314;2023-07-31T10:20:16;18.80;99.90
57829;DHT22;43657;52.698;6.314;2023-07-31T10:22:43;18.90;99.90
57829;DHT22;43657;52.698;6.314;2023-07-31T10:25:09;19.20;99.90
57829;DHT22;43657;52.698;6.314;2023-07-31T10:27:36;19.30;99.90
57829;DHT22;43657;52.698;6.314;2023-07-31T10:30:04;19.30;99.90
57829;DHT22;43657;52.698;6.314;2023-07-31T10:32:30;19.30;99.90
57829;DHT22;43657;52.698;6.314;2023-07-31T10:34:57;19.30;99.90
57829;DHT22;43657;52.698;6.314;2023-07-31T10:37:28;19.30;99.90
57829;DHT22;43657;52.698;6.314;2023-07-31T10:40:06;19.20;99.90
57829;DHT22;43657;52.698;6.314;2023-07-31T10:42:36;19.30;99.90
57829;DHT22;43657;52.698;6.314;2023-07-31T10:45:10;19.30;99.90
57829;DHT22;43657;52.698;6.314;2023-07-31T10:47:43;19.40;99.90
57829;DHT22;43657;52.698;6.314;2023-07-31T10:50:19;19.50;99.90
57829;DHT22;43657;52.698;6.314;2023-07-31T10:52:53;19.40;99.90
57829;DHT22;43657;52.698;6.314;2023-07-31T10:55:29;19.30;99.90
57829;DHT22;43657;52.698;6.314;2023-07-31T10:57:56;19.30;99.90
57829;DHT22;43657;52.698;6.314;2023-07-31T11:00:29;19.20;99.90
57829;DHT22;43657;52.698;6.314;2023-07-31T11:03:15;19.20;99.90
57829;DHT22;43657;52.698;6.314;2023-07-31T11:05:49;19.10;99.90
57829;DHT22;43657;52.698;6.314;2023-07-31T11:08:25;19.10;99.90
57829;DHT22;43657;52.698;6.314;2023-07-31T11:11:06;19.10;99.90
57829;DHT22;43657;52.698;6.314;2023-07-31T11:13:33;19.20;99.90
57829;DHT22;43657;52.698;6.314;2023-07-31T11:16:00;19.40;99.90
57829;DHT22;43657;52.698;6.314;2023-07-31T11:18:26;19.50;99.90
57829;DHT22;43657;52.698;6.314;2023-07-31T11:20:53;19.50;99.90
57829;DHT22;43657;52.698;6.314;2023-07-31T11:23:19;19.40;99.90
57829;DHT22;43657;52.698;6.314;2023-07-31T11:25:45;19.30;99.90
57829;DHT22;43657;52.698;6.314;2023-07-31T11:28:15;19.30;99.90
57829;DHT22;43657;52.698;6.314;2023-07-31T11:30:50;19.40;99.90
57829;DHT22;43657;52.698;6.314;2023-07-31T11:33:18;19.40;99.90
57829;DHT22;43657;52.698;6.314;2023-07-31T11:35:59;19.70;99.90
57829;DHT22;43657;52.698;6.314;2023-07-31T11:38:33;19.70;99.90
57829;DHT22;43657;52.698;6.314;2023-07-31T11:41:06;20.00;99.90
57829;DHT22;43657;52.698;6.314;2023-07-31T11:43:42;20.30;99.90
57829;DHT22;43657;52.698;6.314;2023-07-31T11:52:40;20.10;99.90
57829;DHT22;43657;52.698;6.314;2023-07-31T11:56:09;20.10;99.90
57829;DHT22;43657;52.698;6.314;2023-07-31T12:00:15;20.40;99.90
57829;DHT22;43657;52.698;6.314;2023-07-31T12:04:01;20.50;99.90
57829;DHT22;43657;52.698;6.314;2023-07-31T12:15:15;20.60;99.90
57829;DHT22;43657;52.698;6.314;2023-07-31T12:19:04;20.50;99.90
57829;DHT22;43657;52.698;6.314;2023-07-31T12:26:56;20.80;99.90
57829;DHT22;43657;52.698;6.314;2023-07-31T13:46:35;20.20;99.90
57829;DHT22;43657;52.698;6.314;2023-07-31T13:50:23;20.20;99.90
57829;DHT22;43657;52.698;6.314;2023-07-31T14:06:11;20.40;99.90
57829;DHT22;43657;52.698;6.314;2023-07-31T14:22:10;20.50;99.90
57829;DHT22;43657;52.698;6.314;2023-07-31T14:52:17;20.10;99.90
57829;DHT22;43657;52.698;6.314;2023-07-31T15:10:48;19.70;99.90
57829;DHT22;43657;52.698;6.314;2023-07-31T15:36:31;18.60;99.90
57829;DHT22;43657;52.698;6.314;2023-07-31T15:40:29;18.60;99.90
57829;DHT22;43657;52.698;6.314;2023-07-31T15:43:25;18.70;99.90
57829;DHT22;43657;52.698;6.314;2023-07-31T15:47:36;18.80;99.90
57829;DHT22;43657;52.698;6.314;2023-07-31T16:01:48;19.00;99.90
57829;DHT22;43657;52.698;6.314;2023-07-31T16:05:56;19.10;99.90
57829;DHT22;43657;52.698;6.314;2023-07-31T16:14:13;18.90;99.90
57829;DHT22;43657;52.698;6.314;2023-07-31T16:28:32;18.60;99.90
57829;DHT22;43657;52.698;6.314;2023-07-31T16:35:19;18.50;99.90
57829;DHT22;43657;52.698;6.314;2023-07-31T16:38:01;18.40;99.90
57829;DHT22;43657;52.698;6.314;2023-07-31T16:40:28;18.40;99.90
57829;DHT22;43657;52.698;6.314;2023-07-31T16:42:54;18.40;99.90
57829;DHT22;43657;52.698;6.314;2023-07-31T16:45:19;18.30;99.90
57829;DHT22;43657;52.698;6.314;2023-07-31T16:47:45;18.30;99.90
57829;DHT22;43657;52.698;6.314;2023-07-31T16:50:10;18.30;99.90
57829;DHT22;43657;52.698;6.314;2023-07-31T16:52:36;18.30;99.90
57829;DHT22;43657;52.698;6.314;2023-07-31T16:55:02;18.30;99.90
57829;DHT22;43657;52.698;6.314;2023-07-31T16:57:28;18.30;99.90
57829;DHT22;43657;52.698;6.314;2023-07-31T16:59:53;18.30;99.90
57829;DHT22;43657;52.698;6.314;2023-07-31T17:02:19;18.30;99.90
57829;DHT22;43657;52.698;6.314;2023-07-31T17:04:44;18.30;99.90
57829;DHT22;43657;52.698;6.314;2023-07-31T17:07:10;18.20;99.90
57829;DHT22;43657;52.698;6.314;2023-07-31T17:09:37;18.20;99.90
57829;DHT22;43657;52.698;6.314;2023-07-31T17:12:03;18.10;99.90
57829;DHT22;43657;52.698;6.314;2023-07-31T17:14:28;18.10;99.90
57829;DHT22;43657;52.698;6.314;2023-07-31T17:16:54;18.10;99.90
57829;DHT22;43657;52.698;6.314;2023-07-31T17:19:19;18.00;99.90
57829;DHT22;43657;52.698;6.314;2023-07-31T17:21:45;17.90;99.90
57829;DHT22;43657;52.698;6.314;2023-07-31T17:24:11;17.90;99.90
57829;DHT22;43657;52.698;6.314;2023-07-31T17:26:36;17.80;99.90
57829;DHT22;43657;52.698;6.314;2023-07-31T17:29:02;17.80;99.90
57829;DHT22;43657;52.698;6.314;2023-07-31T17:31:27;17.70;99.90
57829;DHT22;43657;52.698;6.314;2023-07-31T17:33:53;17.70;99.90
57829;DHT22;43657;52.698;6.314;2023-07-31T17:36:19;17.60;99.90
57829;DHT22;43657;52.698;6.314;2023-07-31T17:38:44;17.60;99.90
57829;DHT22;43657;52.698;6.314;2023-07-31T17:41:11;17.50;99.90
57829;DHT22;43657;52.698;6.314;2023-07-31T17:43:37;17.40;99.90
57829;DHT22;43657;52.698;6.314;2023-07-31T17:46:03;17.40;99.90
57829;DHT22;43657;52.698;6.314;2023-07-31T17:48:28;17.40;99.90
57829;DHT22;43657;52.698;6.314;2023-07-31T17:50:54;17.40;99.90
57829;DHT22;43657;52.698;6.314;2023-07-31T17:53:20;17.30;99.90
57829;DHT22;43657;52.698;6.314;2023-07-31T17:55:46;17.30;99.90
57829;DHT22;43657;52.698;6.314;2023-07-31T17:58:12;17.30;99.90
57829;DHT22;43657;52.698;6.314;2023-07-31T18:00:38;17.20;99.90
57829;DHT22;43657;52.698;6.314;2023-07-31T18:03:03;17.20;99.90
57829;DHT22;43657;52.698;6.314;2023-07-31T18:05:31;17.20;99.90
57829;DHT22;43657;52.698;6.314;2023-07-31T18:07:57;17.00;99.90
57829;DHT22;43657;52.698;6.314;2023-07-31T18:10:22;17.00;99.90
57829;DHT22;43657;52.698;6.314;2023-07-31T18:12:48;17.20;99.90
57829;DHT22;43657;52.698;6.314;2023-07-31T18:15:13;17.10;99.90
57829;DHT22;43657;52.698;6.314;2023-07-31T18:17:39;17.10;99.90
57829;DHT22;43657;52.698;6.314;2023-07-31T18:20:05;17.10;99.90
57829;DHT22;43657;52.698;6.314;2023-07-31T18:22:34;17.10;99.90
57829;DHT22;43657;52.698;6.314;2023-07-31T18:25:00;17.10;99.90
57829;DHT22;43657;52.698;6.314;2023-07-31T18:27:25;17.10;99.90
57829;DHT22;43657;52.698;6.314;2023-07-31T18:29:51;17.00;99.90
57829;DHT22;43657;52.698;6.314;2023-07-31T18:32:16;17.00;99.90
57829;DHT22;43657;52.698;6.314;2023-07-31T18:34:42;17.00;99.90
57829;DHT22;43657;52.698;6.314;2023-07-31T18:37:07;17.10;99.90
57829;DHT22;43657;52.698;6.314;2023-07-31T18:39:33;17.00;99.90
57829;DHT22;43657;52.698;6.314;2023-07-31T18:41:59;17.00;99.90
57829;DHT22;43657;52.698;6.314;2023-07-31T18:44:25;17.10;99.90
57829;DHT22;43657;52.698;6.314;2023-07-31T18:46:50;17.00;99.90
57829;DHT22;43657;52.698;6.314;2023-07-31T18:49:18;16.90;99.90
57829;DHT22;43657;52.698;6.314;2023-07-31T18:51:44;17.00;99.90
57829;DHT22;43657;52.698;6.314;2023-07-31T18:54:11;17.00;99.90
57829;DHT22;43657;52.698;6.314;2023-07-31T18:56:37;16.90;99.90
57829;DHT22;43657;52.698;6.314;2023-07-31T18:59:03;16.90;99.90
57829;DHT22;43657;52.698;6.314;2023-07-31T19:01:28;16.90;99.90
57829;DHT22;43657;52.698;6.314;2023-07-31T19:04:00;16.90;99.90
57829;DHT22;43657;52.698;6.314;2023-07-31T19:06:25;16.90;99.90
57829;DHT22;43657;52.698;6.314;2023-07-31T19:08:52;16.90;99.90
57829;DHT22;43657;52.698;6.314;2023-07-31T19:11:19;16.90;99.90
57829;DHT22;43657;52.698;6.314;2023-07-31T19:13:44;16.90;99.90
57829;DHT22;43657;52.698;6.314;2023-07-31T19:16:11;17.00;99.90
57829;DHT22;43657;52.698;6.314;2023-07-31T19:18:36;16.90;99.90
57829;DHT22;43657;52.698;6.314;2023-07-31T19:21:02;16.90;99.90
57829;DHT22;43657;52.698;6.314;2023-07-31T19:23:28;16.80;99.90
57829;DHT22;43657;52.698;6.314;2023-07-31T19:25:53;16.90;99.90
57829;DHT22;43657;52.698;6.314;2023-07-31T19:28:19;16.80;99.90
57829;DHT22;43657;52.698;6.314;2023-07-31T19:30:46;16.80;99.90
57829;DHT22;43657;52.698;6.314;2023-07-31T19:33:12;16.80;99.90